Aérodrome :
LOGIN :

S'inscrire | Disclaimer

   EN    FR    IT 

 










Légende :    VFR   VFR Marginal   IFR   IFR Intensif   IFR Très Intensif
Visi : 
Plafond : 
>= 8 km
>= 3000ft
5 à 8 km
1000 à 3000 ft
1500m à 5 km
500 à 1000 ft
800 à 1500m
200 à 500 ft
< 800m
< 200 ft
Symboles :   Orages  Brouillard  Fortes neiges  Fortes précipitations  Vent > 20 kt
SIGMETs :   Divers  Orages  Givrage  Turbulence  Onde Orograph.  Cendres Volcan.







- Altitude de l'aérodrome : 913 ft
- Voir les cartes d'approche


LFSX - Luxeuil

DERNIER METAR :
  • 161600Z AUTO VRB02KT CAVOK 17/01 Q1026

METARs EXPIRÉS :
  • 161530Z AUTO VRB02KT CAVOK 19/M01 Q1026
  • 161500Z AUTO VRB02KT CAVOK 19/M00 Q1027
  • 161430Z AUTO VRB02KT CAVOK 18/M00 Q1027
  • 161400Z AUTO 04003KT 350V080 CAVOK 18/01 Q1027
  • 161330Z AUTO VRB02KT CAVOK 17/01 Q1027
  • 161300Z AUTO VRB03KT CAVOK 16/00 Q1028

TAF TAF LFSX
Valide du 16 à 09h jusqu'au 17 à 09h UTC


160800Z 1609/1709 15005KT CAVOK
Pas de NOTAMs connus pour ce terrain.



MET'MAP, la Météo Aéronautique d'un coup d'oeil ! - Copyright ORBIFLY Décembre 2007 - Disclaimer

ORBIFLY MET'MAP TEAM :

Programmation & Développement : Alexandra Zaïnal
Conception & Développement : Baudouin d'Aumeries
Co-Programmation & Développement : Marc-Olivier Méhu
Soutien technique & logistique : Manuel Goepfert

Contact : metmap@orbifly.com




SOURCES & CREDITS :

   NOAA